Weather observations for the past three days for
Olathe, New Century Aircenter
Metric (Imperial)
Date Time (cdt) Wind (kph) Vis. (km) Weather Sky Cond. Temperature (ºC) Relative Humidity Wind Chill (°C) Heat Index (°C) Pressure Precipitation (cm)
Air Dwpt 6 hour altimeter (cm) sea level (mb) 1 hr 3 hr 6 hr
Max. Min.
03 20:53 Calm 16.09 Fair CLR 21.7 7.8 41% 75.62 1007.2
03 19:53 Calm 16.09 Fair CLR 22.8 7.2 37% 75.59 1007.2
03 18:53 S 11 16.09 Fair CLR 24.4 7.8 28.3 23.9 35% 25 75.62 1007.6
03 17:53 SW 28 G 43 16.09 Fair CLR 27.2 5 24% 26 75.67 1007.9
03 16:53 W 31 G 43 16.09 Fair CLR 28.3 5 23% 27 75.69 1008.4
03 15:53 SW 24 G 43 16.09 Fair CLR 27.8 7.8 28% 27 75.74 1009.1
03 14:53 SW 30 G 43 16.09 Fair CLR 27.2 9.4 33% 27 75.82 1010.1
03 13:53 SW 24 G 43 16.09 Fair CLR 25.6 8.9 35% 26 75.9 1011.2
03 12:53 SW 28 G 44 16.09 Fair CLR 23.9 8.9 23.9 8.9 39% 25 75.95 1012.0
03 11:53 SW 28 G 43 16.09 Fair CLR 22.2 8.3 41% 76.02 1013.1
03 10:53 S 35 G 57 16.09 Fair and Breezy CLR 20 7.2 44% 76.05 1013.5
03 09:53 S 39 G 54 16.09 Fair and Breezy CLR 17.8 5.6 45% 76.07 1013.8
03 08:53 S 28 G 41 16.09 Fair CLR 15 3.9 48% 76.12 1014.6
03 07:53 S 20 16.09 Fair CLR 11.1 2.8 57% 76.12 1014.7
03 06:53 S 15 16.09 Fair CLR 8.9 1.7 9.4 6.1 61% 7 76.15 1015.0
03 05:53 S 22 16.09 Fair CLR 8.9 1.1 58% 6 76.15 1014.9
03 04:53 S 20 16.09 Fair CLR 9.4 1.1 56% 7 76.2 1015.4
03 03:53 S 17 16.09 Fair CLR 8.3 2.2 66% 6 76.23 1015.9
03 02:53 S 13 16.09 Fair CLR 8.3 2.2 66% 6 76.25 1016.3
03 01:53 S 13 16.09 Fair CLR 7.8 2.2 68% 6 76.28 1016.9
03 00:53 S 11 16.09 Fair CLR 6.1 2.8 16.7 5.6 80% 4 76.33 1017.7
02 23:53 S 11 16.09 Fair CLR 7.8 2.2 68% 6 76.38 1018.1
02 22:53 S 11 16.09 Fair CLR 8.3 2.8 69% 7 76.4 1018.6
02 21:53 S 7 16.09 Fair CLR 9.4 1.1 56% 9 76.43 1019.0
02 20:53 S 6 16.09 Fair CLR 11.7 0.6 47% 76.43 1018.9
02 19:53 SW 7 16.09 Fair CLR 14.4 -1.1 35% 76.43 1018.9
02 18:53 W 9 16.09 Fair CLR 16.7 -2.2 17.2 13.9 28% 76.43 1018.9
02 17:53 W 9 16.09 Fair CLR 16.7 -2.2 28% 76.45 1019.3
02 16:53 NW 15 16.09 Fair CLR 16.7 -2.2 28% 76.48 1019.6
02 15:53 W 7 16.09 Fair CLR 16.7 -1.1 30% 76.53 1020.2
02 14:53 NW 13 G 31 16.09 Fair CLR 16.1 -1.1 31% 76.56 1020.7
02 13:53 Vrbl 9 16.09 Fair CLR 15 -0.6 35% 76.61 1021.3
02 12:53 NW 17 G 30 16.09 A Few Clouds FEW060 15 0 15 3.3 36% 76.66 1022.0
02 11:53 Calm 16.09 Fair CLR 13.9 -0.6 37% 76.68 1022.2
02 10:53 NW 9 16.09 A Few Clouds FEW050 13.3 0.6 42% 76.68 1022.4
02 09:53 N 11 16.09 Fair CLR 11.7 2.2 52% 76.68 1022.3
02 08:53 N 7 16.09 Fair CLR 8.9 1.1 58% 8 76.66 1022.2
02 07:53 NW 7 16.09 Fair CLR 6.1 0 65% 5 76.63 1021.8
02 06:53 NW 9 16.09 Fair CLR 3.3 0 7.2 2.2 79% 1 76.58 1021.0
02 05:53 NW 9 16.09 Fair CLR 2.2 -1.1 79% -0 76.56 1020.7
02 04:53 NW 9 16.09 Fair CLR 2.8 -0.6 79% 1 76.53 1020.2
02 03:53 NW 9 16.09 Fair CLR 3.9 -0.6 73% 2 76.5 1019.8
02 02:53 NW 9 16.09 Fair CLR 4.4 -0.6 70% 2 76.48 1019.5
02 01:53 NW 7 16.09 Fair CLR 5.6 0 68% 4 76.5 1019.7
02 00:53 N 11 16.09 Fair CLR 5.6 0.6 16.7 5.6 71% 3 76.5 1019.8
01 23:53 N 13 16.09 Fair CLR 6.7 1.1 68% 4 76.48 1019.6
01 22:53 N 11 16.09 Fair CLR 7.2 1.7 68% 5 76.45 1019.3
01 21:53 N 11 16.09 Fair CLR 8.9 1.7 61% 7 76.4 1018.6
01 20:53 N 9 16.09 Fair CLR 10 2.2 59% 9 76.35 1017.8
01 19:53 N 15 16.09 Fair CLR 11.7 2.8 55% 76.28 1017.0
01 18:53 NW 17 16.09 A Few Clouds FEW080 16.7 -0.6 18.3 16.1 31% 76.25 1016.4
01 17:53 NW 19 G 37 16.09 Fair CLR 17.2 -0.6 30% 76.23 1016.2
01 16:53 N 28 G 41 16.09 Overcast BKN080 OVC100 17.2 0 31% 76.25 1016.6
01 15:53 NW 17 G 33 16.09 Overcast OVC090 17.8 1.7 34% 76.33 1017.4
01 14:53 W 13 G 26 16.09 Mostly Cloudy SCT080 BKN100 17.2 -0.6 30% 76.38 1018.2
01 13:53 NW 17 G 31 16.09 A Few Clouds FEW080 17.2 0.6 33% 76.4 1018.5
01 12:53 Vrbl 7 16.09 Fair CLR 16.1 -1.7 16.7 4.4 30% 76.45 1019.0
01 11:53 Vrbl 9 16.09 Fair CLR 15 -1.1 33% 76.48 1019.5
01 10:53 Vrbl 9 16.09 Fair CLR 14.4 0 38% 76.45 1019.3
01 09:53 SW 11 16.09 Fair CLR 12.8 0.6 44% 76.45 1019.3
01 08:53 S 7 16.09 Fair CLR 10.6 2.2 56% 76.45 1019.2
01 07:53 Calm 16.09 Fair CLR 7.8 3.3 73% 76.48 1019.4
01 06:53 Calm 16.09 Fair CLR 4.4 1.1 6.7 3.3 79% 76.48 1019.4
01 05:53 Calm 16.09 Fair CLR 4.4 1.7 83% 76.43 1019.1
01 04:53 Calm 16.09 Fair CLR 5 1.1 76% 76.45 1019.0
01 03:53 Calm 16.09 Fair CLR 5.6 0.6 71% 76.45 1019.0
01 02:53 Calm 16.09 Fair CLR 5.6 1.1 73% 76.48 1019.5
01 01:53 N 9 16.09 Fair CLR 6.1 1.7 74% 4 76.5 1019.7
01 00:53 N 11 16.09 A Few Clouds FEW090 5.6 2.8 16.1 5.6 82% 3 76.5 1019.8
30 23:53 N 11 16.09 Fair CLR 6.1 2.8 80% 4 76.48 1019.4
30 22:53 N 11 16.09 A Few Clouds FEW080 7.2 3.9 80% 5 76.45 1019.2
30 21:53 N 13 16.09 Fair CLR 8.3 4.4 77% 6 76.43 1018.7
Date Time (cdt) Wind (kph) Vis. (km) Weather Sky Cond. Air Dwpt Max. Min. Relative Humidity Wind Chill (°C) Heat Index (°C) altimeter (cm) sea level (mb) 1 hr 3 hr 6 hr
6 hour
Temperature (ºC) Pressure Precipitation (cm)